Terminal Aerodrome Forecast
Issued by NWS Cleveland, OH

Home | Current Version | Previous Version | Text Only | Print | Product List | Glossary On
Versions: 1 2 3 4 5 6 7 8 9 10 11 12 13 14
000
FTUS41 KCLE 201700
TAFTOL
TAF
KTOL 201733Z 2018/2118 24012KT P6SM OVC070
      TEMPO 2018/2021 4SM SHRA OVC025
     FM202100 27008KT P6SM VCSH OVC025
     FM210500 30008KT 6SM BR OVC015
     FM211300 33012KT P6SM BKN035=

USA.gov is the U.S. government's official web portal to all federal, state and local government web resources and services.